Terminal Aerodrome Forecast
Issued by NWS Tampa Bay Area, FL

Home | Current Version | Previous Version | Text Only | Print | Product List | Glossary On
Versions: 1 2 3 4 5 6 7 8 9 10 11 12 13 14 15 16 17 18 19 20 21 22 23 24
000
FTUS42 KTBW 201400 AAA
TAFTPA
TAF AMD
KTPA 201458Z 2015/2112 13005KT P6SM FEW100 BKN250
     FM201800 23005KT P6SM BKN110 BKN250
     FM202300 VRB03KT P6SM BKN070 BKN250=

USA.gov is the U.S. government's official web portal to all federal, state and local government web resources and services.